createdAt,value
2018-03-16T00:01:43.903Z,4.10
2018-03-16T00:04:10.273Z,4.00
2018-03-16T00:06:36.727Z,4.10
2018-03-16T00:09:03.056Z,4.00
2018-03-16T00:11:29.363Z,3.90
2018-03-16T00:13:55.759Z,3.90
2018-03-16T00:16:22.217Z,3.90
2018-03-16T00:18:48.445Z,3.90
2018-03-16T00:21:14.885Z,3.90
2018-03-16T00:23:41.188Z,3.90
2018-03-16T00:26:07.584Z,3.80
2018-03-16T00:28:33.940Z,3.80
2018-03-16T00:31:00.208Z,3.70
2018-03-16T00:33:26.603Z,3.70
2018-03-16T00:35:53.787Z,3.70
2018-03-16T00:38:20.192Z,3.70
2018-03-16T00:40:46.554Z,3.70
2018-03-16T00:43:12.860Z,3.80
2018-03-16T00:45:39.912Z,3.70
2018-03-16T00:48:06.262Z,3.70
2018-03-16T00:50:32.689Z,3.80
2018-03-16T00:52:59.095Z,3.70
2018-03-16T00:55:25.764Z,3.70
2018-03-16T00:57:52.072Z,3.70
2018-03-16T01:00:19.156Z,3.60
2018-03-16T01:02:45.457Z,3.60
2018-03-16T01:05:12.528Z,3.50
2018-03-16T01:07:38.943Z,3.50
2018-03-16T01:10:06.108Z,3.50
2018-03-16T01:12:32.535Z,3.50
2018-03-16T01:14:58.953Z,3.50
2018-03-16T01:17:25.989Z,3.50
2018-03-16T01:19:52.338Z,3.50
2018-03-16T01:22:19.383Z,3.40
2018-03-16T01:24:46.508Z,3.40
2018-03-16T01:27:13.908Z,3.40
2018-03-16T01:29:40.140Z,3.40
2018-03-16T01:32:06.427Z,3.40
2018-03-16T01:34:32.789Z,3.40
2018-03-16T01:36:59.037Z,3.40
2018-03-16T01:39:25.413Z,3.30
2018-03-16T01:41:51.883Z,3.20
2018-03-16T01:44:18.304Z,3.20
2018-03-16T01:46:45.435Z,3.20
2018-03-16T01:49:11.756Z,3.20
2018-03-16T01:51:38.005Z,3.20
2018-03-16T01:54:05.036Z,3.10
2018-03-16T01:56:31.392Z,3.10
2018-03-16T01:58:58.539Z,3.10
2018-03-16T02:01:25.552Z,3.10
2018-03-16T02:03:51.904Z,3.00
2018-03-16T02:06:19.083Z,3.10
2018-03-16T02:08:45.404Z,3.10
2018-03-16T02:11:11.664Z,3.10
2018-03-16T02:13:37.940Z,3.00
2018-03-16T02:16:04.421Z,3.10
2018-03-16T02:18:30.804Z,3.10
2018-03-16T02:20:57.180Z,3.00
2018-03-16T02:23:23.588Z,3.00
2018-03-16T02:25:50.752Z,3.00
2018-03-16T02:28:17.062Z,2.90
2018-03-16T02:30:44.126Z,3.00
2018-03-16T02:33:10.532Z,3.00
2018-03-16T02:35:36.984Z,3.00
2018-03-16T02:38:04.132Z,2.90
2018-03-16T02:40:31.279Z,3.00
2018-03-16T02:42:58.406Z,2.90
2018-03-16T02:45:24.695Z,2.90
2018-03-16T02:47:50.979Z,2.90
2018-03-16T02:50:18.069Z,2.90
2018-03-16T02:52:44.457Z,2.80
2018-03-16T02:55:11.478Z,2.90
2018-03-16T02:57:37.840Z,2.90
2018-03-16T03:00:05.013Z,2.90
2018-03-16T03:02:31.340Z,2.90
2018-03-16T03:04:57.663Z,2.90
2018-03-16T03:07:24.644Z,2.90
2018-03-16T03:09:51.380Z,2.80
2018-03-16T03:12:17.767Z,2.90
2018-03-16T03:14:44.932Z,2.90
2018-03-16T03:17:11.175Z,2.80
2018-03-16T03:19:37.534Z,2.90
2018-03-16T03:22:03.930Z,2.80
2018-03-16T03:24:30.264Z,2.80
2018-03-16T03:26:56.668Z,2.80
2018-03-16T03:29:23.107Z,2.80
2018-03-16T03:31:50.253Z,2.80
2018-03-16T03:34:17.458Z,2.80
2018-03-16T03:36:43.852Z,2.80
2018-03-16T03:39:10.876Z,2.80
2018-03-16T03:41:37.215Z,2.80
2018-03-16T03:44:04.399Z,2.80
2018-03-16T03:46:31.839Z,2.90
2018-03-16T03:48:58.243Z,2.80
2018-03-16T03:51:24.599Z,2.80
2018-03-16T03:53:51.752Z,2.90
2018-03-16T03:56:18.779Z,2.80
2018-03-16T03:58:45.112Z,2.80
2018-03-16T04:01:12.284Z,2.80
2018-03-16T04:03:38.713Z,2.80
2018-03-16T04:06:05.152Z,2.80
2018-03-16T04:08:31.572Z,2.80
2018-03-16T04:10:58.720Z,2.80
2018-03-16T04:13:25.744Z,2.80
2018-03-16T04:15:52.104Z,2.80
2018-03-16T04:18:18.507Z,2.80
2018-03-16T04:20:45.028Z,2.80
2018-03-16T04:23:11.393Z,2.80
2018-03-16T04:25:38.568Z,2.80
2018-03-16T04:28:04.967Z,2.80
2018-03-16T04:30:31.331Z,2.80
2018-03-16T04:32:57.628Z,2.70
2018-03-16T04:35:23.992Z,2.60
2018-03-16T04:37:50.491Z,2.60
2018-03-16T04:40:16.893Z,2.60
2018-03-16T04:42:43.968Z,2.60
2018-03-16T04:45:10.324Z,2.60
2018-03-16T04:47:37.363Z,2.50
2018-03-16T04:50:04.432Z,2.50
2018-03-16T04:52:30.755Z,2.40
2018-03-16T04:54:57.185Z,2.50
2018-03-16T04:57:24.164Z,2.40
2018-03-16T04:59:50.577Z,2.40
2018-03-16T05:02:20.087Z,2.40
2018-03-16T05:04:46.445Z,2.40
2018-03-16T05:07:12.697Z,2.30
2018-03-16T05:09:39.084Z,2.50
2018-03-16T05:12:05.460Z,2.40
2018-03-16T05:14:31.847Z,2.50
2018-03-16T05:16:58.248Z,2.40
2018-03-16T05:19:25.443Z,2.30
2018-03-16T05:21:51.775Z,2.30
2018-03-16T05:24:18.171Z,2.30
2018-03-16T05:26:45.167Z,2.30
2018-03-16T05:29:11.425Z,2.30
2018-03-16T05:31:38.208Z,2.20
2018-03-16T05:34:04.527Z,2.20
2018-03-16T05:36:30.940Z,2.30
2018-03-16T05:38:58.024Z,2.40
2018-03-16T05:41:24.272Z,2.30
2018-03-16T05:43:50.648Z,2.30
2018-03-16T05:46:17.727Z,2.20
2018-03-16T05:48:45.063Z,2.20
2018-03-16T05:51:11.320Z,2.20
2018-03-16T05:53:37.649Z,2.20
2018-03-16T05:56:04.000Z,2.20
2018-03-16T05:58:31.036Z,2.20
2018-03-16T06:00:57.351Z,2.20
2018-03-16T06:03:23.652Z,2.20
2018-03-16T06:05:50.759Z,2.20
2018-03-16T06:08:17.052Z,2.20
2018-03-16T06:10:43.407Z,2.20
2018-03-16T06:13:10.461Z,2.10
2018-03-16T06:15:36.895Z,2.10
2018-03-16T06:18:03.263Z,2.10
2018-03-16T06:20:29.603Z,2.20
2018-03-16T06:22:56.648Z,2.10
2018-03-16T06:25:23.740Z,2.20
2018-03-16T06:27:50.034Z,2.10
2018-03-16T06:30:17.147Z,2.00
2018-03-16T06:32:43.482Z,2.10
2018-03-16T06:35:09.849Z,2.00
2018-03-16T06:37:36.875Z,2.00
2018-03-16T06:40:03.260Z,2.00
2018-03-16T06:42:29.563Z,2.00
2018-03-16T06:44:55.978Z,2.00
2018-03-16T06:47:22.231Z,2.00
2018-03-16T06:49:48.611Z,1.90
2018-03-16T06:52:14.940Z,1.90
2018-03-16T06:54:41.291Z,1.90
2018-03-16T06:57:07.624Z,1.80
2018-03-16T06:59:34.703Z,1.80
2018-03-16T07:02:00.961Z,1.70
2018-03-16T07:04:27.288Z,1.70
2018-03-16T07:06:53.530Z,1.70
2018-03-16T07:09:19.807Z,1.80
2018-03-16T07:11:46.089Z,1.70
2018-03-16T07:14:12.344Z,1.80
2018-03-16T07:16:38.588Z,1.80
2018-03-16T07:19:05.616Z,1.70
2018-03-16T07:21:31.872Z,1.70
2018-03-16T07:23:58.879Z,1.60
2018-03-16T07:26:25.123Z,1.50
2018-03-16T07:28:51.395Z,1.50
2018-03-16T07:31:17.636Z,1.60
2018-03-16T07:33:43.899Z,1.50
2018-03-16T07:36:10.140Z,1.40
2018-03-16T07:38:36.440Z,1.40
2018-03-16T07:41:02.693Z,1.40
2018-03-16T07:43:28.958Z,1.30
2018-03-16T07:46:00.283Z,1.30
2018-03-16T07:48:27.280Z,1.20
2018-03-16T07:50:53.554Z,1.30
2018-03-16T07:53:20.564Z,1.10
2018-03-16T07:55:46.828Z,1.10
2018-03-16T07:58:13.123Z,1.10
2018-03-16T08:00:39.392Z,1.10
2018-03-16T08:03:06.382Z,1.30
2018-03-16T08:05:32.660Z,1.20
2018-03-16T08:07:59.660Z,1.20
2018-03-16T08:10:25.912Z,1.20
2018-03-16T08:12:52.164Z,1.20
2018-03-16T08:15:18.501Z,1.20
2018-03-16T08:17:44.695Z,1.10
2018-03-16T08:20:11.692Z,1.10
2018-03-16T08:22:37.938Z,1.00
2018-03-16T08:25:04.195Z,1.00
2018-03-16T08:27:31.201Z,0.90
2018-03-16T08:29:57.479Z,0.90
2018-03-16T08:32:23.732Z,0.90
2018-03-16T08:34:50.004Z,1.00
2018-03-16T08:37:16.295Z,1.10
2018-03-16T08:39:43.304Z,1.20
2018-03-16T08:42:09.548Z,1.20
2018-03-16T08:44:35.832Z,1.10
2018-03-16T08:47:02.084Z,1.10
2018-03-16T08:49:28.351Z,1.20
2018-03-16T08:51:54.594Z,1.20
2018-03-16T08:54:21.592Z,1.20
2018-03-16T08:56:47.829Z,1.20
2018-03-16T08:59:14.149Z,1.20
2018-03-16T09:01:40.380Z,1.30
2018-03-16T09:04:06.644Z,1.30
2018-03-16T09:06:32.900Z,1.40
2018-03-16T09:08:59.172Z,1.40
2018-03-16T09:11:25.423Z,1.40
2018-03-16T09:13:52.934Z,1.40
2018-03-16T09:16:19.194Z,1.30
2018-03-16T09:18:45.477Z,1.20
2018-03-16T09:21:11.716Z,1.20
2018-03-16T09:23:37.996Z,1.20
2018-03-16T09:26:05.272Z,1.20
2018-03-16T09:28:32.272Z,1.30
2018-03-16T09:30:59.352Z,1.20
2018-03-16T09:33:25.592Z,1.30
2018-03-16T09:35:52.628Z,1.30
2018-03-16T09:38:18.865Z,1.30
2018-03-16T09:40:45.115Z,1.40
2018-03-16T09:43:11.341Z,1.30
2018-03-16T09:45:37.610Z,1.30
2018-03-16T09:48:03.847Z,1.20
2018-03-16T09:50:30.101Z,1.30
2018-03-16T09:52:56.328Z,1.20
2018-03-16T09:55:45.488Z,1.20
2018-03-16T09:58:11.733Z,1.30
2018-03-16T10:00:38.736Z,1.20
2018-03-16T10:03:05.005Z,1.20
2018-03-16T10:05:32.004Z,1.20
2018-03-16T10:07:58.247Z,1.20
2018-03-16T10:10:24.508Z,1.30
2018-03-16T10:12:51.484Z,1.10
2018-03-16T10:15:17.740Z,1.10
2018-03-16T10:17:44.011Z,1.00
2018-03-16T10:20:10.260Z,1.00
2018-03-16T10:22:36.488Z,1.00
2018-03-16T10:25:02.768Z,1.00
2018-03-16T10:27:29.020Z,1.00
2018-03-16T10:29:55.300Z,1.10
2018-03-16T10:32:21.584Z,1.20
2018-03-16T10:34:48.591Z,1.20
2018-03-16T10:37:14.868Z,1.20
2018-03-16T10:39:41.892Z,1.20
2018-03-16T10:42:08.157Z,1.20
2018-03-16T10:44:34.475Z,1.20
2018-03-16T10:47:01.452Z,1.10
2018-03-16T10:49:27.748Z,1.00
2018-03-16T10:51:54.728Z,1.00
2018-03-16T10:54:20.983Z,1.00
2018-03-16T10:56:47.232Z,1.00
2018-03-16T10:59:13.491Z,0.90
2018-03-16T11:01:45.845Z,0.90
2018-03-16T11:04:13.161Z,1.00
2018-03-16T11:06:39.461Z,1.00
2018-03-16T11:09:05.743Z,1.00
2018-03-16T11:11:31.996Z,1.00
2018-03-16T11:13:59.027Z,0.90
2018-03-16T11:16:25.264Z,0.90
2018-03-16T11:18:52.272Z,1.00
2018-03-16T11:21:18.520Z,1.00
2018-03-16T11:23:44.792Z,0.90
2018-03-16T11:26:11.040Z,1.00
2018-03-16T11:28:37.316Z,1.00
2018-03-16T11:31:03.808Z,1.00
2018-03-16T11:33:30.072Z,1.00
2018-03-16T11:35:56.365Z,1.00
2018-03-16T11:38:22.604Z,1.00
2018-03-16T11:40:48.832Z,1.00
2018-03-16T11:43:15.080Z,1.00
2018-03-16T11:45:41.336Z,1.10
2018-03-16T11:48:08.352Z,1.20
2018-03-16T11:50:34.654Z,1.20
2018-03-16T11:53:00.896Z,1.20
2018-03-16T11:55:27.909Z,1.20
2018-03-16T11:57:54.149Z,1.20
2018-03-16T12:00:20.412Z,1.30
2018-03-16T12:02:47.402Z,1.30
2018-03-16T12:05:13.687Z,1.30
2018-03-16T12:07:39.940Z,1.30
2018-03-16T12:10:06.205Z,1.20
2018-03-16T12:12:32.452Z,1.20
2018-03-16T12:14:58.712Z,1.20
2018-03-16T12:17:24.956Z,1.20
2018-03-16T12:19:51.216Z,1.30
2018-03-16T12:22:17.466Z,1.30
2018-03-16T12:24:43.732Z,1.20
2018-03-16T12:27:10.020Z,1.20
2018-03-16T12:29:36.281Z,1.20
2018-03-16T12:32:02.602Z,1.10
2018-03-16T12:34:28.883Z,1.10
2018-03-16T12:36:55.169Z,1.10
2018-03-16T12:39:21.452Z,1.10
2018-03-16T12:41:47.704Z,1.10
2018-03-16T12:44:13.972Z,1.10
2018-03-16T12:46:40.212Z,0.90
2018-03-16T12:49:07.224Z,1.10
2018-03-16T12:51:42.079Z,1.10
2018-03-16T12:54:01.486Z,1.00
2018-03-16T12:56:27.732Z,1.10
2018-03-16T12:58:54.032Z,1.10
2018-03-16T13:01:20.283Z,0.90
2018-03-16T13:03:46.584Z,0.70
2018-03-16T13:06:13.588Z,0.60
2018-03-16T13:08:39.832Z,0.60
2018-03-16T13:11:06.112Z,0.70
2018-03-16T13:13:32.412Z,0.70
2018-03-16T13:15:59.432Z,0.80
2018-03-16T13:18:25.668Z,0.80
2018-03-16T13:20:51.936Z,0.80
2018-03-16T13:23:18.969Z,0.90
2018-03-16T13:25:45.216Z,0.90
2018-03-16T13:28:11.466Z,0.80
2018-03-16T13:30:37.720Z,0.80
2018-03-16T13:33:04.007Z,0.80
2018-03-16T13:35:30.280Z,0.70
2018-03-16T13:37:56.549Z,0.70
2018-03-16T13:40:23.541Z,0.50
2018-03-16T13:42:49.776Z,0.50
2018-03-16T13:45:16.040Z,0.60
2018-03-16T13:47:44.120Z,0.30
2018-03-16T13:50:10.426Z,0.40
2018-03-16T13:52:36.689Z,0.40
2018-03-16T13:55:03.036Z,0.40
2018-03-16T13:57:29.291Z,0.60
2018-03-16T13:59:55.601Z,0.70
2018-03-16T14:02:21.880Z,0.70
2018-03-16T14:04:48.140Z,0.80
2018-03-16T14:07:14.384Z,0.80
2018-03-16T14:09:40.640Z,0.80
2018-03-16T14:12:06.901Z,0.90
2018-03-16T14:14:33.192Z,0.80
2018-03-16T14:16:59.432Z,0.80
2018-03-16T14:19:25.680Z,0.90
2018-03-16T14:21:51.969Z,0.90
2018-03-16T14:24:18.219Z,1.00
2018-03-16T14:26:44.472Z,0.90
2018-03-16T14:29:10.744Z,0.90
2018-03-16T14:31:36.984Z,0.90
2018-03-16T14:34:03.277Z,1.00
2018-03-16T14:36:29.560Z,0.90
2018-03-16T14:38:55.816Z,0.80
2018-03-16T14:41:22.820Z,0.90
2018-03-16T14:43:49.075Z,0.80
2018-03-16T14:46:15.308Z,0.80
2018-03-16T14:48:41.606Z,0.70
2018-03-16T14:51:07.848Z,0.70
2018-03-16T14:53:34.108Z,0.70
2018-03-16T14:56:00.357Z,0.60
2018-03-16T14:58:27.336Z,0.70
2018-03-16T15:00:53.583Z,0.60
2018-03-16T15:03:20.573Z,0.70
2018-03-16T15:05:47.568Z,0.70
2018-03-16T15:08:13.818Z,0.60
2018-03-16T15:10:40.108Z,0.50
2018-03-16T15:13:06.386Z,0.60
2018-03-16T15:15:32.664Z,0.60
2018-03-16T15:17:58.901Z,0.50
2018-03-16T15:20:25.176Z,0.50
2018-03-16T15:22:52.164Z,0.60
2018-03-16T15:25:18.480Z,0.50
2018-03-16T15:27:45.836Z,0.50
2018-03-16T15:33:41.764Z,0.40
2018-03-16T15:36:08.972Z,0.20
2018-03-16T15:38:35.215Z,0.20
2018-03-16T15:41:01.487Z,0.30
2018-03-16T15:43:28.476Z,0.20
2018-03-16T15:45:54.853Z,0.20
2018-03-16T15:48:21.838Z,0.20
2018-03-16T15:50:48.191Z,0.10
2018-03-16T15:53:14.428Z,0.20
2018-03-16T15:55:40.837Z,0.30
2018-03-16T15:58:07.120Z,0.20
2018-03-16T16:00:34.330Z,0.10
2018-03-16T16:03:00.753Z,0.00
2018-03-16T16:05:27.178Z,0.00
2018-03-16T16:07:53.428Z,0.00
2018-03-16T16:10:19.868Z,0.00
2018-03-16T16:12:46.450Z,0.00
2018-03-16T16:15:12.975Z,-0.10
2018-03-16T16:17:39.486Z,-0.10
2018-03-16T16:20:20.225Z,-0.20
2018-03-16T16:22:47.149Z,-0.20
2018-03-16T16:25:13.940Z,-0.30
2018-03-16T16:27:40.264Z,-0.30
2018-03-16T16:30:07.030Z,-0.40
2018-03-16T16:32:34.023Z,-0.30
2018-03-16T16:35:00.853Z,-0.30
2018-03-16T16:37:27.579Z,-0.30
2018-03-16T16:39:54.089Z,-0.30
2018-03-16T16:42:21.412Z,-0.40
2018-03-16T16:44:47.649Z,-0.40
2018-03-16T16:47:14.052Z,-0.30
2018-03-16T16:49:40.368Z,-0.40
2018-03-16T16:52:06.756Z,-0.40
2018-03-16T16:54:48.136Z,-0.50
2018-03-16T16:57:14.490Z,-0.60
2018-03-16T16:59:41.568Z,-0.60
2018-03-16T17:02:07.812Z,-0.60
2018-03-16T17:04:34.121Z,-0.60
2018-03-16T17:07:05.949Z,-0.50
2018-03-16T17:09:33.217Z,-0.60
2018-03-16T17:11:59.540Z,-0.60
2018-03-16T17:14:26.614Z,-0.70
2018-03-16T17:16:52.908Z,-0.70
2018-03-16T17:19:19.952Z,-0.70
2018-03-16T17:21:47.046Z,-0.70
2018-03-16T17:24:13.397Z,-0.70
2018-03-16T17:26:46.692Z,-0.70
2018-03-16T17:29:12.983Z,-0.70
2018-03-16T17:31:39.295Z,-0.70
2018-03-16T17:34:06.351Z,-0.80
2018-03-16T17:36:32.624Z,-0.80
2018-03-16T17:38:59.105Z,-0.70
2018-03-16T17:41:26.145Z,-0.70
2018-03-16T17:44:00.469Z,-0.80
2018-03-16T17:46:27.614Z,-0.70
2018-03-16T17:48:58.268Z,-0.80
2018-03-16T17:51:24.705Z,-0.80
2018-03-16T17:53:50.986Z,-0.80
2018-03-16T17:56:17.335Z,-0.80
2018-03-16T17:58:44.404Z,-0.80
2018-03-16T18:01:10.721Z,-0.80
2018-03-16T18:03:37.803Z,-0.80
2018-03-16T18:06:04.119Z,-0.80
2018-03-16T18:08:30.460Z,-0.80
2018-03-16T18:10:56.764Z,-0.70
2018-03-16T18:13:23.888Z,-0.70
2018-03-16T18:15:50.232Z,-0.80
2018-03-16T18:18:17.320Z,-0.60
2018-03-16T18:20:43.699Z,-0.60
2018-03-16T18:23:10.121Z,-0.60
2018-03-16T18:25:36.496Z,-0.60
2018-03-16T18:28:02.844Z,-0.60
2018-03-16T18:30:29.157Z,-0.60
2018-03-16T18:32:55.896Z,-0.60
2018-03-16T18:35:23.217Z,-0.70
2018-03-16T18:37:50.245Z,-0.70
2018-03-16T18:40:16.846Z,-0.60
2018-03-16T18:42:43.102Z,-0.60
2018-03-16T18:45:09.968Z,-0.60
2018-03-16T18:47:36.866Z,-0.60
2018-03-16T18:50:03.699Z,-0.60
2018-03-16T18:52:30.546Z,-0.60
2018-03-16T18:54:57.096Z,-0.60
2018-03-16T18:57:28.279Z,-0.70
2018-03-16T18:59:55.115Z,-0.60
2018-03-16T19:02:21.764Z,-0.70
2018-03-16T19:04:48.972Z,-0.70
2018-03-16T19:07:16.326Z,-0.70
2018-03-16T19:09:42.632Z,-0.70
2018-03-16T19:12:10.428Z,-0.80
2018-03-16T19:14:36.820Z,-0.80
2018-03-16T19:17:03.895Z,-0.70
2018-03-16T19:19:30.415Z,-0.80
2018-03-16T19:22:00.036Z,-0.70
2018-03-16T19:24:26.615Z,-0.70
2018-03-16T19:26:53.122Z,-0.70
2018-03-16T19:29:20.544Z,-0.80
2018-03-16T19:31:47.238Z,-0.70
2018-03-16T19:34:15.062Z,-0.70
2018-03-16T19:36:41.963Z,-0.70
2018-03-16T19:39:08.856Z,-0.80
2018-03-16T19:41:35.655Z,-0.80
2018-03-16T19:44:02.833Z,-0.80
2018-03-16T19:46:29.148Z,-0.80
2018-03-16T19:48:56.181Z,-0.80
2018-03-16T19:51:22.466Z,-0.80
2018-03-16T19:53:48.812Z,-0.80
2018-03-16T19:56:15.177Z,-0.90
2018-03-16T19:58:41.568Z,-0.90
2018-03-16T20:01:07.877Z,-0.90
2018-03-16T20:03:34.204Z,-0.90
2018-03-16T20:06:00.548Z,-0.90
2018-03-16T20:08:26.883Z,-1.00
2018-03-16T20:10:53.245Z,-1.00
2018-03-16T20:13:19.581Z,-1.20
2018-03-16T20:15:45.939Z,-1.20
2018-03-16T20:18:12.981Z,-1.30
2018-03-16T20:20:40.072Z,-1.30
2018-03-16T20:23:06.381Z,-1.30
2018-03-16T20:25:32.764Z,-1.30
2018-03-16T20:27:59.092Z,-1.40
2018-03-16T20:30:25.464Z,-1.40
2018-03-16T20:32:52.472Z,-1.40
2018-03-16T20:35:18.852Z,-1.40
2018-03-16T20:37:45.193Z,-1.40
2018-03-16T20:40:11.536Z,-1.40
2018-03-16T20:42:37.876Z,-1.50
2018-03-16T20:45:04.257Z,-1.50
2018-03-16T20:47:31.276Z,-1.70
2018-03-16T20:49:57.656Z,-1.70
2018-03-16T20:52:23.968Z,-1.70
2018-03-16T20:54:50.324Z,-1.70
2018-03-16T20:57:16.657Z,-1.70
2018-03-16T20:59:43.040Z,-1.60
2018-03-16T21:02:09.296Z,-1.70
2018-03-16T21:04:36.332Z,-1.70
2018-03-16T21:07:03.592Z,-1.70
2018-03-16T21:09:30.635Z,-1.70
2018-03-16T21:11:57.718Z,-1.70
2018-03-16T21:14:28.159Z,-1.70
2018-03-16T21:16:54.495Z,-1.60
2018-03-16T21:19:20.836Z,-1.60
2018-03-16T21:21:48.021Z,-1.70
2018-03-16T21:24:15.057Z,-1.90
2018-03-16T21:26:41.421Z,-1.90
2018-03-16T21:29:07.765Z,-1.90
2018-03-16T21:31:35.179Z,-1.80
2018-03-16T21:34:01.456Z,-1.90
2018-03-16T21:36:27.831Z,-2.00
2018-03-16T21:38:54.206Z,-2.00
2018-03-16T21:41:20.524Z,-2.00
2018-03-16T21:43:46.840Z,-2.00
2018-03-16T21:46:13.848Z,-2.00
2018-03-16T21:48:40.963Z,-2.10
2018-03-16T21:51:07.372Z,-2.10
2018-03-16T21:53:33.676Z,-2.10
2018-03-16T21:56:00.030Z,-2.10
2018-03-16T21:58:27.056Z,-2.10
2018-03-16T22:00:53.484Z,-2.10
2018-03-16T22:03:19.858Z,-2.10
2018-03-16T22:05:46.232Z,-2.20
2018-03-16T22:08:12.548Z,-2.30
2018-03-16T22:10:38.920Z,-2.30
2018-03-16T22:13:05.229Z,-2.30
2018-03-16T22:15:31.763Z,-2.30
2018-03-16T22:17:58.216Z,-2.40
2018-03-16T22:20:24.578Z,-2.40
2018-03-16T22:22:50.932Z,-2.40
2018-03-16T22:25:17.261Z,-2.50
2018-03-16T22:27:43.637Z,-2.50
2018-03-16T22:30:09.941Z,-2.50
2018-03-16T22:32:36.297Z,-2.50
2018-03-16T22:35:02.656Z,-2.70
2018-03-16T22:37:29.008Z,-2.70
2018-03-16T22:39:55.333Z,-2.70
2018-03-16T22:42:21.690Z,-2.80
2018-03-16T22:44:48.031Z,-2.80
2018-03-16T22:47:14.420Z,-2.80
2018-03-16T22:49:40.717Z,-2.80
2018-03-16T22:52:07.068Z,-2.80
2018-03-16T22:54:33.430Z,-2.90
2018-03-16T22:56:59.701Z,-2.90
2018-03-16T22:59:26.012Z,-2.90
2018-03-16T23:01:52.360Z,-2.90
2018-03-16T23:04:18.673Z,-2.90
2018-03-16T23:06:44.945Z,-2.90
2018-03-16T23:09:11.469Z,-2.90
2018-03-16T23:11:37.837Z,-2.90
2018-03-16T23:14:06.232Z,-2.90
2018-03-16T23:16:32.504Z,-2.90
2018-03-16T23:18:58.800Z,-2.90
2018-03-16T23:21:25.173Z,-3.00
2018-03-16T23:23:51.503Z,-3.00
2018-03-16T23:26:17.846Z,-3.00
2018-03-16T23:28:44.949Z,-3.10
2018-03-16T23:31:11.244Z,-3.10
2018-03-16T23:33:38.408Z,-3.10
2018-03-16T23:36:04.789Z,-3.10
2018-03-16T23:38:31.212Z,-3.10
2018-03-16T23:40:57.452Z,-3.10
2018-03-16T23:43:23.795Z,-3.10
2018-03-16T23:45:50.128Z,-3.10
2018-03-16T23:48:17.232Z,-3.00
2018-03-16T23:50:43.557Z,-3.10
2018-03-16T23:53:10.022Z,-3.00
2018-03-16T23:55:36.362Z,-3.10
2018-03-16T23:58:02.692Z,-3.00
